sensor_id;sensor_type;location;lat;lon;timestamp;P1;durP1;ratioP1;P2;durP2;ratioP2
28547;SDS011;68292;49.600;8.746;2023-03-15T00:01:11;2.93;;;2.10;;
28547;SDS011;68292;49.600;8.746;2023-03-15T00:03:45;4.60;;;2.27;;
28547;SDS011;68292;49.600;8.746;2023-03-15T00:06:15;3.00;;;2.30;;
28547;SDS011;68292;49.600;8.746;2023-03-15T00:08:44;2.73;;;2.27;;
28547;SDS011;68292;49.600;8.746;2023-03-15T00:11:14;2.83;;;1.90;;
28547;SDS011;68292;49.600;8.746;2023-03-15T00:13:43;2.40;;;2.10;;
28547;SDS011;68292;49.600;8.746;2023-03-15T00:16:13;3.47;;;1.80;;
28547;SDS011;68292;49.600;8.746;2023-03-15T00:18:45;2.50;;;1.67;;
28547;SDS011;68292;49.600;8.746;2023-03-15T00:21:14;3.33;;;1.93;;
28547;SDS011;68292;49.600;8.746;2023-03-15T00:23:43;1.80;;;1.70;;
28547;SDS011;68292;49.600;8.746;2023-03-15T00:26:11;2.80;;;1.90;;
28547;SDS011;68292;49.600;8.746;2023-03-15T00:28:41;3.33;;;1.90;;
28547;SDS011;68292;49.600;8.746;2023-03-15T00:31:12;2.53;;;1.80;;
28547;SDS011;68292;49.600;8.746;2023-03-15T00:33:43;5.60;;;1.97;;
28547;SDS011;68292;49.600;8.746;2023-03-15T00:36:14;2.07;;;1.87;;
28547;SDS011;68292;49.600;8.746;2023-03-15T00:38:43;3.50;;;2.30;;
28547;SDS011;68292;49.600;8.746;2023-03-15T00:41:13;3.17;;;2.07;;
28547;SDS011;68292;49.600;8.746;2023-03-15T00:43:43;3.13;;;2.17;;
28547;SDS011;68292;49.600;8.746;2023-03-15T00:46:12;2.00;;;1.80;;
28547;SDS011;68292;49.600;8.746;2023-03-15T00:48:47;2.90;;;2.00;;
28547;SDS011;68292;49.600;8.746;2023-03-15T00:51:18;2.80;;;2.50;;
28547;SDS011;68292;49.600;8.746;2023-03-15T00:53:50;2.00;;;1.80;;
28547;SDS011;68292;49.600;8.746;2023-03-15T00:56:20;2.27;;;2.00;;
28547;SDS011;68292;49.600;8.746;2023-03-15T00:58:52;4.57;;;2.33;;
28547;SDS011;68292;49.600;8.746;2023-03-15T01:01:21;3.23;;;2.20;;
28547;SDS011;68292;49.600;8.746;2023-03-15T01:03:53;2.87;;;2.27;;
28547;SDS011;68292;49.600;8.746;2023-03-15T01:06:24;3.23;;;2.40;;
28547;SDS011;68292;49.600;8.746;2023-03-15T01:08:57;2.70;;;2.30;;
28547;SDS011;68292;49.600;8.746;2023-03-15T01:11:27;4.93;;;2.10;;
28547;SDS011;68292;49.600;8.746;2023-03-15T01:13:57;3.37;;;2.53;;
28547;SDS011;68292;49.600;8.746;2023-03-15T01:16:26;3.13;;;2.17;;
28547;SDS011;68292;49.600;8.746;2023-03-15T01:18:56;3.00;;;2.57;;
28547;SDS011;68292;49.600;8.746;2023-03-15T01:21:25;2.70;;;2.50;;
28547;SDS011;68292;49.600;8.746;2023-03-15T01:23:54;3.43;;;2.20;;
28547;SDS011;68292;49.600;8.746;2023-03-15T01:26:23;2.93;;;2.20;;
28547;SDS011;68292;49.600;8.746;2023-03-15T01:28:51;3.67;;;2.27;;
28547;SDS011;68292;49.600;8.746;2023-03-15T01:31:22;4.03;;;2.60;;
28547;SDS011;68292;49.600;8.746;2023-03-15T01:33:52;2.03;;;1.83;;
28547;SDS011;68292;49.600;8.746;2023-03-15T01:36:23;4.27;;;2.30;;
28547;SDS011;68292;49.600;8.746;2023-03-15T01:38:52;2.00;;;1.80;;
28547;SDS011;68292;49.600;8.746;2023-03-15T01:41:33;3.90;;;2.23;;
28547;SDS011;68292;49.600;8.746;2023-03-15T01:44:02;2.57;;;1.67;;
28547;SDS011;68292;49.600;8.746;2023-03-15T01:46:31;3.40;;;1.70;;
28547;SDS011;68292;49.600;8.746;2023-03-15T01:49:14;3.53;;;2.00;;
28547;SDS011;68292;49.600;8.746;2023-03-15T01:51:51;1.67;;;1.57;;
28547;SDS011;68292;49.600;8.746;2023-03-15T01:54:28;4.40;;;2.10;;
28547;SDS011;68292;49.600;8.746;2023-03-15T01:57:01;2.43;;;1.90;;
28547;SDS011;68292;49.600;8.746;2023-03-15T01:59:35;3.17;;;1.80;;
28547;SDS011;68292;49.600;8.746;2023-03-15T02:02:08;2.20;;;1.87;;
28547;SDS011;68292;49.600;8.746;2023-03-15T02:04:41;2.37;;;1.87;;
28547;SDS011;68292;49.600;8.746;2023-03-15T02:07:18;2.63;;;1.97;;
28547;SDS011;68292;49.600;8.746;2023-03-15T02:09:53;4.50;;;2.10;;
28547;SDS011;68292;49.600;8.746;2023-03-15T02:12:31;2.63;;;1.80;;
28547;SDS011;68292;49.600;8.746;2023-03-15T02:15:04;4.20;;;1.90;;
28547;SDS011;68292;49.600;8.746;2023-03-15T02:17:36;5.57;;;2.07;;
28547;SDS011;68292;49.600;8.746;2023-03-15T02:20:10;2.17;;;1.57;;
28547;SDS011;68292;49.600;8.746;2023-03-15T02:23:21;2.40;;;1.50;;
28547;SDS011;68292;49.600;8.746;2023-03-15T02:25:52;1.50;;;1.40;;
28547;SDS011;68292;49.600;8.746;2023-03-15T02:28:32;5.77;;;1.77;;
28547;SDS011;68292;49.600;8.746;2023-03-15T02:31:02;2.43;;;1.57;;
28547;SDS011;68292;49.600;8.746;2023-03-15T02:33:32;4.13;;;1.53;;
28547;SDS011;68292;49.600;8.746;2023-03-15T02:36:08;3.43;;;1.80;;
28547;SDS011;68292;49.600;8.746;2023-03-15T02:38:42;3.63;;;1.80;;
28547;SDS011;68292;49.600;8.746;2023-03-15T02:41:11;3.03;;;1.53;;
28547;SDS011;68292;49.600;8.746;2023-03-15T02:43:44;2.87;;;1.47;;
28547;SDS011;68292;49.600;8.746;2023-03-15T02:46:16;3.17;;;1.60;;
28547;SDS011;68292;49.600;8.746;2023-03-15T02:48:45;4.00;;;1.90;;
28547;SDS011;68292;49.600;8.746;2023-03-15T02:51:18;2.60;;;1.30;;
28547;SDS011;68292;49.600;8.746;2023-03-15T02:53:50;2.33;;;1.80;;
28547;SDS011;68292;49.600;8.746;2023-03-15T02:56:18;2.20;;;1.60;;
28547;SDS011;68292;49.600;8.746;2023-03-15T02:58:49;3.87;;;1.80;;
28547;SDS011;68292;49.600;8.746;2023-03-15T03:01:17;3.00;;;1.33;;
28547;SDS011;68292;49.600;8.746;2023-03-15T03:03:46;4.03;;;1.73;;
28547;SDS011;68292;49.600;8.746;2023-03-15T03:06:15;2.13;;;1.63;;
28547;SDS011;68292;49.600;8.746;2023-03-15T03:08:45;1.77;;;1.50;;
28547;SDS011;68292;49.600;8.746;2023-03-15T03:11:17;6.83;;;1.80;;
28547;SDS011;68292;49.600;8.746;2023-03-15T03:13:46;2.60;;;1.70;;
28547;SDS011;68292;49.600;8.746;2023-03-15T03:16:17;2.33;;;1.87;;
28547;SDS011;68292;49.600;8.746;2023-03-15T03:18:48;3.37;;;1.57;;
28547;SDS011;68292;49.600;8.746;2023-03-15T03:21:18;3.53;;;1.70;;
28547;SDS011;68292;49.600;8.746;2023-03-15T03:23:48;1.70;;;1.60;;
28547;SDS011;68292;49.600;8.746;2023-03-15T03:26:17;3.73;;;1.87;;
28547;SDS011;68292;49.600;8.746;2023-03-15T03:28:50;2.57;;;1.83;;
28547;SDS011;68292;49.600;8.746;2023-03-15T03:31:21;2.83;;;2.20;;
28547;SDS011;68292;49.600;8.746;2023-03-15T03:33:54;3.50;;;2.03;;
28547;SDS011;68292;49.600;8.746;2023-03-15T03:36:24;4.17;;;2.17;;
28547;SDS011;68292;49.600;8.746;2023-03-15T03:38:53;3.10;;;1.80;;
28547;SDS011;68292;49.600;8.746;2023-03-15T03:41:23;2.33;;;1.90;;
28547;SDS011;68292;49.600;8.746;2023-03-15T03:43:53;3.63;;;2.03;;
28547;SDS011;68292;49.600;8.746;2023-03-15T03:46:22;3.00;;;2.33;;
28547;SDS011;68292;49.600;8.746;2023-03-15T03:48:51;3.17;;;2.53;;
28547;SDS011;68292;49.600;8.746;2023-03-15T03:51:20;2.80;;;2.50;;
28547;SDS011;68292;49.600;8.746;2023-03-15T03:53:49;3.60;;;2.60;;
28547;SDS011;68292;49.600;8.746;2023-03-15T03:56:18;3.03;;;2.60;;
28547;SDS011;68292;49.600;8.746;2023-03-15T03:58:47;4.67;;;2.17;;
28547;SDS011;68292;49.600;8.746;2023-03-15T04:01:22;2.90;;;2.53;;
28547;SDS011;68292;49.600;8.746;2023-03-15T04:03:53;3.10;;;2.27;;
28547;SDS011;68292;49.600;8.746;2023-03-15T04:06:23;5.03;;;2.00;;
28547;SDS011;68292;49.600;8.746;2023-03-15T04:08:52;2.40;;;2.20;;
28547;SDS011;68292;49.600;8.746;2023-03-15T04:11:27;3.10;;;2.30;;
28547;SDS011;68292;49.600;8.746;2023-03-15T04:14:00;3.47;;;1.90;;
28547;SDS011;68292;49.600;8.746;2023-03-15T04:16:30;4.80;;;2.20;;
28547;SDS011;68292;49.600;8.746;2023-03-15T04:19:05;2.43;;;2.10;;
28547;SDS011;68292;49.600;8.746;2023-03-15T04:21:35;2.10;;;1.90;;
28547;SDS011;68292;49.600;8.746;2023-03-15T04:24:18;3.50;;;2.00;;
28547;SDS011;68292;49.600;8.746;2023-03-15T04:27:09;4.40;;;2.63;;
28547;SDS011;68292;49.600;8.746;2023-03-15T04:29:58;3.17;;;1.73;;
28547;SDS011;68292;49.600;8.746;2023-03-15T04:32:45;2.53;;;2.00;;
28547;SDS011;68292;49.600;8.746;2023-03-15T04:35:34;4.50;;;2.00;;
28547;SDS011;68292;49.600;8.746;2023-03-15T04:38:28;4.40;;;2.50;;
28547;SDS011;68292;49.600;8.746;2023-03-15T04:41:30;2.57;;;2.10;;
28547;SDS011;68292;49.600;8.746;2023-03-15T04:44:15;4.30;;;2.27;;
28547;SDS011;68292;49.600;8.746;2023-03-15T04:46:54;3.00;;;2.30;;
28547;SDS011;68292;49.600;8.746;2023-03-15T04:49:35;3.87;;;2.90;;
28547;SDS011;68292;49.600;8.746;2023-03-15T04:52:27;3.53;;;2.57;;
28547;SDS011;68292;49.600;8.746;2023-03-15T04:55:25;3.57;;;2.37;;
28547;SDS011;68292;49.600;8.746;2023-03-15T04:58:05;5.10;;;3.57;;
28547;SDS011;68292;49.600;8.746;2023-03-15T05:00:39;2.93;;;2.63;;
28547;SDS011;68292;49.600;8.746;2023-03-15T05:03:08;3.00;;;2.53;;
28547;SDS011;68292;49.600;8.746;2023-03-15T05:06:16;5.37;;;3.93;;
28547;SDS011;68292;49.600;8.746;2023-03-15T05:09:03;7.10;;;3.27;;
28547;SDS011;68292;49.600;8.746;2023-03-15T05:11:50;4.00;;;3.20;;
28547;SDS011;68292;49.600;8.746;2023-03-15T05:14:34;6.87;;;3.20;;
28547;SDS011;68292;49.600;8.746;2023-03-15T05:17:27;3.03;;;2.50;;
28547;SDS011;68292;49.600;8.746;2023-03-15T05:19:58;2.53;;;2.13;;
28547;SDS011;68292;49.600;8.746;2023-03-15T05:22:55;2.93;;;2.40;;
28547;SDS011;68292;49.600;8.746;2023-03-15T05:25:39;4.53;;;2.40;;
28547;SDS011;68292;49.600;8.746;2023-03-15T05:28:36;2.93;;;2.07;;
28547;SDS011;68292;49.600;8.746;2023-03-15T05:31:14;3.40;;;2.30;;
28547;SDS011;68292;49.600;8.746;2023-03-15T05:34:09;3.63;;;2.20;;
28547;SDS011;68292;49.600;8.746;2023-03-15T05:36:58;3.83;;;2.10;;
28547;SDS011;68292;49.600;8.746;2023-03-15T05:39:45;4.43;;;1.80;;
28547;SDS011;68292;49.600;8.746;2023-03-15T05:42:46;4.17;;;2.07;;
28547;SDS011;68292;49.600;8.746;2023-03-15T05:45:35;7.77;;;4.23;;
28547;SDS011;68292;49.600;8.746;2023-03-15T05:48:20;6.50;;;3.83;;
28547;SDS011;68292;49.600;8.746;2023-03-15T05:51:12;10.03;;;6.30;;
28547;SDS011;68292;49.600;8.746;2023-03-15T05:54:07;9.10;;;4.73;;
28547;SDS011;68292;49.600;8.746;2023-03-15T05:56:57;4.53;;;3.30;;
28547;SDS011;68292;49.600;8.746;2023-03-15T05:59:50;5.13;;;2.50;;
28547;SDS011;68292;49.600;8.746;2023-03-15T06:02:44;8.57;;;2.70;;
28547;SDS011;68292;49.600;8.746;2023-03-15T06:05:36;3.20;;;2.80;;
28547;SDS011;68292;49.600;8.746;2023-03-15T06:08:11;3.97;;;2.63;;
28547;SDS011;68292;49.600;8.746;2023-03-15T06:10:43;4.73;;;2.70;;
28547;SDS011;68292;49.600;8.746;2023-03-15T06:13:13;3.30;;;2.97;;
28547;SDS011;68292;49.600;8.746;2023-03-15T06:15:45;4.77;;;2.47;;
28547;SDS011;68292;49.600;8.746;2023-03-15T06:18:16;4.70;;;3.10;;
28547;SDS011;68292;49.600;8.746;2023-03-15T06:20:47;4.23;;;3.13;;
28547;SDS011;68292;49.600;8.746;2023-03-15T06:23:17;4.73;;;3.03;;
28547;SDS011;68292;49.600;8.746;2023-03-15T06:25:46;5.27;;;2.80;;
28547;SDS011;68292;49.600;8.746;2023-03-15T06:28:17;5.80;;;2.90;;
28547;SDS011;68292;49.600;8.746;2023-03-15T06:30:52;7.47;;;3.37;;
28547;SDS011;68292;49.600;8.746;2023-03-15T06:33:27;8.90;;;3.50;;
28547;SDS011;68292;49.600;8.746;2023-03-15T06:35:55;5.73;;;3.30;;
28547;SDS011;68292;49.600;8.746;2023-03-15T06:38:26;5.70;;;2.90;;
28547;SDS011;68292;49.600;8.746;2023-03-15T06:40:55;3.67;;;2.63;;
28547;SDS011;68292;49.600;8.746;2023-03-15T06:43:26;5.10;;;2.93;;
28547;SDS011;68292;49.600;8.746;2023-03-15T06:45:56;8.87;;;3.20;;
28547;SDS011;68292;49.600;8.746;2023-03-15T06:48:26;4.97;;;3.20;;
28547;SDS011;68292;49.600;8.746;2023-03-15T06:50:56;3.90;;;2.40;;
28547;SDS011;68292;49.600;8.746;2023-03-15T06:53:25;3.80;;;2.63;;
28547;SDS011;68292;49.600;8.746;2023-03-15T06:55:53;5.27;;;2.83;;
28547;SDS011;68292;49.600;8.746;2023-03-15T06:58:22;5.30;;;2.27;;
28547;SDS011;68292;49.600;8.746;2023-03-15T07:00:52;4.43;;;2.70;;
28547;SDS011;68292;49.600;8.746;2023-03-15T07:03:20;3.87;;;2.60;;
28547;SDS011;68292;49.600;8.746;2023-03-15T07:05:49;5.10;;;2.67;;
28547;SDS011;68292;49.600;8.746;2023-03-15T07:08:20;2.73;;;2.03;;
28547;SDS011;68292;49.600;8.746;2023-03-15T07:10:50;4.17;;;2.63;;
28547;SDS011;68292;49.600;8.746;2023-03-15T07:13:19;5.13;;;2.20;;
28547;SDS011;68292;49.600;8.746;2023-03-15T07:15:51;5.10;;;2.50;;
28547;SDS011;68292;49.600;8.746;2023-03-15T07:18:21;4.60;;;2.43;;
28547;SDS011;68292;49.600;8.746;2023-03-15T07:20:56;5.07;;;2.50;;
28547;SDS011;68292;49.600;8.746;2023-03-15T07:23:26;4.63;;;2.60;;
28547;SDS011;68292;49.600;8.746;2023-03-15T07:25:55;4.57;;;2.77;;
28547;SDS011;68292;49.600;8.746;2023-03-15T07:28:24;3.27;;;2.27;;
28547;SDS011;68292;49.600;8.746;2023-03-15T07:30:56;3.63;;;2.30;;
28547;SDS011;68292;49.600;8.746;2023-03-15T07:33:27;5.93;;;2.93;;
28547;SDS011;68292;49.600;8.746;2023-03-15T07:35:58;5.53;;;3.00;;
28547;SDS011;68292;49.600;8.746;2023-03-15T07:38:30;4.80;;;2.73;;
28547;SDS011;68292;49.600;8.746;2023-03-15T07:41:00;3.93;;;2.70;;
28547;SDS011;68292;49.600;8.746;2023-03-15T07:43:29;5.37;;;2.70;;
28547;SDS011;68292;49.600;8.746;2023-03-15T07:46:12;5.47;;;3.00;;
28547;SDS011;68292;49.600;8.746;2023-03-15T07:48:41;6.03;;;3.10;;
28547;SDS011;68292;49.600;8.746;2023-03-15T07:51:10;3.60;;;3.10;;
28547;SDS011;68292;49.600;8.746;2023-03-15T07:53:38;5.23;;;3.07;;
28547;SDS011;68292;49.600;8.746;2023-03-15T07:56:07;4.30;;;2.77;;
28547;SDS011;68292;49.600;8.746;2023-03-15T07:58:36;5.63;;;3.27;;
28547;SDS011;68292;49.600;8.746;2023-03-15T08:01:04;31.97;;;26.07;;
28547;SDS011;68292;49.600;8.746;2023-03-15T08:03:34;16.70;;;15.00;;
28547;SDS011;68292;49.600;8.746;2023-03-15T08:06:03;7.93;;;7.13;;
28547;SDS011;68292;49.600;8.746;2023-03-15T08:08:32;6.60;;;5.80;;
28547;SDS011;68292;49.600;8.746;2023-03-15T08:11:01;6.50;;;5.33;;
28547;SDS011;68292;49.600;8.746;2023-03-15T08:13:32;4.63;;;4.23;;
28547;SDS011;68292;49.600;8.746;2023-03-15T08:16:01;3.63;;;3.10;;
28547;SDS011;68292;49.600;8.746;2023-03-15T08:18:30;7.13;;;3.90;;
28547;SDS011;68292;49.600;8.746;2023-03-15T08:21:00;5.90;;;4.37;;
28547;SDS011;68292;49.600;8.746;2023-03-15T08:23:32;5.70;;;3.63;;
28547;SDS011;68292;49.600;8.746;2023-03-15T08:26:04;4.37;;;3.07;;
28547;SDS011;68292;49.600;8.746;2023-03-15T08:28:33;3.97;;;2.73;;
28547;SDS011;68292;49.600;8.746;2023-03-15T08:31:04;5.37;;;3.03;;
28547;SDS011;68292;49.600;8.746;2023-03-15T08:33:37;6.50;;;3.37;;
28547;SDS011;68292;49.600;8.746;2023-03-15T08:36:07;4.97;;;3.13;;
28547;SDS011;68292;49.600;8.746;2023-03-15T08:38:36;7.30;;;2.93;;
28547;SDS011;68292;49.600;8.746;2023-03-15T08:41:05;5.20;;;4.03;;
28547;SDS011;68292;49.600;8.746;2023-03-15T08:43:34;6.47;;;3.77;;
28547;SDS011;68292;49.600;8.746;2023-03-15T08:46:02;7.73;;;5.23;;
28547;SDS011;68292;49.600;8.746;2023-03-15T08:48:31;5.33;;;3.93;;
28547;SDS011;68292;49.600;8.746;2023-03-15T08:51:00;3.63;;;3.10;;
28547;SDS011;68292;49.600;8.746;2023-03-15T08:53:32;5.33;;;3.13;;
28547;SDS011;68292;49.600;8.746;2023-03-15T08:56:01;3.53;;;2.97;;
28547;SDS011;68292;49.600;8.746;2023-03-15T08:58:30;5.53;;;3.80;;
28547;SDS011;68292;49.600;8.746;2023-03-15T09:01:00;4.17;;;3.50;;
28547;SDS011;68292;49.600;8.746;2023-03-15T09:03:30;7.07;;;4.73;;
28547;SDS011;68292;49.600;8.746;2023-03-15T09:05:59;5.50;;;3.87;;
28547;SDS011;68292;49.600;8.746;2023-03-15T09:08:28;3.60;;;3.30;;
28547;SDS011;68292;49.600;8.746;2023-03-15T09:11:00;5.47;;;3.93;;
28547;SDS011;68292;49.600;8.746;2023-03-15T09:13:29;4.13;;;2.97;;
28547;SDS011;68292;49.600;8.746;2023-03-15T09:15:58;3.60;;;3.00;;
28547;SDS011;68292;49.600;8.746;2023-03-15T09:18:26;4.20;;;2.97;;
28547;SDS011;68292;49.600;8.746;2023-03-15T09:20:55;4.07;;;2.47;;
28547;SDS011;68292;49.600;8.746;2023-03-15T09:23:24;2.87;;;2.43;;
28547;SDS011;68292;49.600;8.746;2023-03-15T09:25:52;2.83;;;2.53;;
28547;SDS011;68292;49.600;8.746;2023-03-15T09:28:22;4.27;;;3.33;;
28547;SDS011;68292;49.600;8.746;2023-03-15T09:30:52;4.03;;;2.80;;
28547;SDS011;68292;49.600;8.746;2023-03-15T09:33:21;3.63;;;3.00;;
28547;SDS011;68292;49.600;8.746;2023-03-15T09:35:49;4.50;;;2.70;;
28547;SDS011;68292;49.600;8.746;2023-03-15T09:38:19;4.10;;;2.83;;
28547;SDS011;68292;49.600;8.746;2023-03-15T09:40:49;4.57;;;2.97;;
28547;SDS011;68292;49.600;8.746;2023-03-15T09:46:39;4.47;;;3.40;;
28547;SDS011;68292;49.600;8.746;2023-03-15T09:49:20;6.37;;;3.83;;
28547;SDS011;68292;49.600;8.746;2023-03-15T09:52:01;5.43;;;4.07;;
28547;SDS011;68292;49.600;8.746;2023-03-15T09:54:39;6.33;;;4.00;;
28547;SDS011;68292;49.600;8.746;2023-03-15T09:57:13;3.97;;;3.57;;
28547;SDS011;68292;49.600;8.746;2023-03-15T09:59:50;4.70;;;3.47;;
28547;SDS011;68292;49.600;8.746;2023-03-15T10:02:22;6.53;;;4.13;;
28547;SDS011;68292;49.600;8.746;2023-03-15T10:04:55;5.00;;;3.80;;
28547;SDS011;68292;49.600;8.746;2023-03-15T10:07:27;5.70;;;4.40;;
28547;SDS011;68292;49.600;8.746;2023-03-15T10:09:57;5.90;;;4.17;;
28547;SDS011;68292;49.600;8.746;2023-03-15T10:12:28;5.87;;;4.73;;
28547;SDS011;68292;49.600;8.746;2023-03-15T10:15:13;6.50;;;4.50;;
28547;SDS011;68292;49.600;8.746;2023-03-15T10:17:57;6.63;;;5.93;;
28547;SDS011;68292;49.600;8.746;2023-03-15T10:20:55;4.13;;;3.73;;
28547;SDS011;68292;49.600;8.746;2023-03-15T10:23:36;4.67;;;3.43;;
28547;SDS011;68292;49.600;8.746;2023-03-15T10:26:10;3.43;;;3.13;;
28547;SDS011;68292;49.600;8.746;2023-03-15T10:28:45;3.47;;;3.17;;
28547;SDS011;68292;49.600;8.746;2023-03-15T10:31:19;3.03;;;2.57;;
28547;SDS011;68292;49.600;8.746;2023-03-15T10:34:09;3.83;;;2.77;;
28547;SDS011;68292;49.600;8.746;2023-03-15T10:36:43;3.67;;;2.63;;
28547;SDS011;68292;49.600;8.746;2023-03-15T10:39:15;3.53;;;2.87;;
28547;SDS011;68292;49.600;8.746;2023-03-15T10:41:45;2.80;;;2.60;;
28547;SDS011;68292;49.600;8.746;2023-03-15T10:44:16;3.13;;;2.83;;
28547;SDS011;68292;49.600;8.746;2023-03-15T10:47:02;5.80;;;3.80;;
28547;SDS011;68292;49.600;8.746;2023-03-15T10:49:48;5.33;;;4.83;;
28547;SDS011;68292;49.600;8.746;2023-03-15T10:52:30;5.87;;;4.80;;
28547;SDS011;68292;49.600;8.746;2023-03-15T10:55:05;6.03;;;5.43;;
28547;SDS011;68292;49.600;8.746;2023-03-15T10:57:39;5.60;;;5.07;;
28547;SDS011;68292;49.600;8.746;2023-03-15T11:00:24;3.77;;;2.97;;
28547;SDS011;68292;49.600;8.746;2023-03-15T11:03:02;4.80;;;3.67;;
28547;SDS011;68292;49.600;8.746;2023-03-15T11:05:38;4.47;;;4.07;;
28547;SDS011;68292;49.600;8.746;2023-03-15T11:08:10;5.03;;;3.90;;
28547;SDS011;68292;49.600;8.746;2023-03-15T11:10:41;4.73;;;4.33;;
28547;SDS011;68292;49.600;8.746;2023-03-15T11:13:12;4.00;;;3.60;;
28547;SDS011;68292;49.600;8.746;2023-03-15T11:15:56;4.10;;;3.70;;
28547;SDS011;68292;49.600;8.746;2023-03-15T11:18:33;6.03;;;4.30;;
28547;SDS011;68292;49.600;8.746;2023-03-15T11:21:05;4.37;;;4.00;;
28547;SDS011;68292;49.600;8.746;2023-03-15T11:23:40;3.90;;;3.50;;
28547;SDS011;68292;49.600;8.746;2023-03-15T11:26:14;4.37;;;3.37;;
28547;SDS011;68292;49.600;8.746;2023-03-15T11:28:58;4.07;;;3.37;;
28547;SDS011;68292;49.600;8.746;2023-03-15T11:31:31;4.73;;;3.30;;
28547;SDS011;68292;49.600;8.746;2023-03-15T11:34:04;3.50;;;3.00;;
28547;SDS011;68292;49.600;8.746;2023-03-15T11:36:37;3.87;;;3.40;;
28547;SDS011;68292;49.600;8.746;2023-03-15T11:39:13;5.40;;;3.47;;
28547;SDS011;68292;49.600;8.746;2023-03-15T11:41:49;3.80;;;3.13;;
28547;SDS011;68292;49.600;8.746;2023-03-15T11:44:24;3.63;;;3.33;;
28547;SDS011;68292;49.600;8.746;2023-03-15T11:47:02;6.40;;;3.53;;
28547;SDS011;68292;49.600;8.746;2023-03-15T11:49:41;5.13;;;3.70;;
28547;SDS011;68292;49.600;8.746;2023-03-15T11:52:19;5.83;;;3.43;;
28547;SDS011;68292;49.600;8.746;2023-03-15T11:54:53;4.47;;;3.90;;
28547;SDS011;68292;49.600;8.746;2023-03-15T11:57:34;4.83;;;3.53;;
28547;SDS011;68292;49.600;8.746;2023-03-15T12:00:25;4.37;;;3.60;;
28547;SDS011;68292;49.600;8.746;2023-03-15T12:03:31;4.63;;;3.57;;
28547;SDS011;68292;49.600;8.746;2023-03-15T12:06:12;4.23;;;3.33;;
28547;SDS011;68292;49.600;8.746;2023-03-15T12:18:21;4.40;;;3.90;;
28547;SDS011;68292;49.600;8.746;2023-03-15T12:21:07;5.00;;;4.33;;
28547;SDS011;68292;49.600;8.746;2023-03-15T12:23:42;4.30;;;3.90;;
28547;SDS011;68292;49.600;8.746;2023-03-15T12:26:22;5.17;;;3.87;;
28547;SDS011;68292;49.600;8.746;2023-03-15T12:29:12;4.93;;;4.43;;
28547;SDS011;68292;49.600;8.746;2023-03-15T12:31:53;5.93;;;5.37;;
28547;SDS011;68292;49.600;8.746;2023-03-15T12:34:26;6.47;;;4.33;;
28547;SDS011;68292;49.600;8.746;2023-03-15T12:37:11;5.30;;;4.80;;
28547;SDS011;68292;49.600;8.746;2023-03-15T12:39:45;5.40;;;4.50;;
28547;SDS011;68292;49.600;8.746;2023-03-15T12:45:37;4.80;;;4.30;;
28547;SDS011;68292;49.600;8.746;2023-03-15T12:48:19;6.60;;;4.20;;
28547;SDS011;68292;49.600;8.746;2023-03-15T12:51:03;6.57;;;4.70;;
28547;SDS011;68292;49.600;8.746;2023-03-15T12:53:47;4.80;;;4.30;;
28547;SDS011;68292;49.600;8.746;2023-03-15T12:59:21;4.30;;;3.90;;
28547;SDS011;68292;49.600;8.746;2023-03-15T13:01:59;5.33;;;4.37;;
28547;SDS011;68292;49.600;8.746;2023-03-15T13:04:30;4.27;;;3.87;;
28547;SDS011;68292;49.600;8.746;2023-03-15T13:07:07;4.77;;;4.30;;
28547;SDS011;68292;49.600;8.746;2023-03-15T13:13:06;4.93;;;3.67;;
28547;SDS011;68292;49.600;8.746;2023-03-15T13:15:48;4.87;;;4.20;;
28547;SDS011;68292;49.600;8.746;2023-03-15T13:18:32;4.93;;;4.17;;
28547;SDS011;68292;49.600;8.746;2023-03-15T13:21:12;5.37;;;4.37;;
28547;SDS011;68292;49.600;8.746;2023-03-15T13:23:48;5.67;;;4.97;;
28547;SDS011;68292;49.600;8.746;2023-03-15T13:26:23;5.73;;;4.63;;
28547;SDS011;68292;49.600;8.746;2023-03-15T13:29:09;4.90;;;4.37;;
28547;SDS011;68292;49.600;8.746;2023-03-15T13:31:43;4.73;;;3.97;;
28547;SDS011;68292;49.600;8.746;2023-03-15T13:34:13;5.73;;;4.20;;
28547;SDS011;68292;49.600;8.746;2023-03-15T13:36:48;4.57;;;4.17;;
28547;SDS011;68292;49.600;8.746;2023-03-15T13:39:23;4.87;;;4.40;;
28547;SDS011;68292;49.600;8.746;2023-03-15T13:41:58;4.50;;;4.10;;
28547;SDS011;68292;49.600;8.746;2023-03-15T13:44:29;7.03;;;5.47;;
28547;SDS011;68292;49.600;8.746;2023-03-15T13:46:59;4.97;;;4.50;;
28547;SDS011;68292;49.600;8.746;2023-03-15T13:49:31;6.30;;;4.90;;
28547;SDS011;68292;49.600;8.746;2023-03-15T13:52:01;5.43;;;4.93;;
28547;SDS011;68292;49.600;8.746;2023-03-15T13:54:37;5.00;;;4.57;;
28547;SDS011;68292;49.600;8.746;2023-03-15T13:57:10;5.73;;;5.17;;
28547;SDS011;68292;49.600;8.746;2023-03-15T13:59:43;6.73;;;5.60;;
28547;SDS011;68292;49.600;8.746;2023-03-15T14:02:15;5.40;;;4.90;;
28547;SDS011;68292;49.600;8.746;2023-03-15T14:04:50;5.77;;;5.20;;
28547;SDS011;68292;49.600;8.746;2023-03-15T14:07:26;4.77;;;4.37;;
28547;SDS011;68292;49.600;8.746;2023-03-15T14:12:56;5.73;;;4.67;;
28547;SDS011;68292;49.600;8.746;2023-03-15T14:15:35;6.07;;;5.10;;
28547;SDS011;68292;49.600;8.746;2023-03-15T14:18:12;5.03;;;4.53;;
28547;SDS011;68292;49.600;8.746;2023-03-15T14:20:50;6.10;;;4.80;;
28547;SDS011;68292;49.600;8.746;2023-03-15T14:23:23;5.73;;;4.57;;
28547;SDS011;68292;49.600;8.746;2023-03-15T14:25:54;5.17;;;4.77;;
28547;SDS011;68292;49.600;8.746;2023-03-15T14:28:31;5.20;;;4.70;;
28547;SDS011;68292;49.600;8.746;2023-03-15T14:31:00;5.23;;;4.80;;
28547;SDS011;68292;49.600;8.746;2023-03-15T14:33:31;5.00;;;4.20;;
28547;SDS011;68292;49.600;8.746;2023-03-15T14:36:10;4.80;;;4.30;;
28547;SDS011;68292;49.600;8.746;2023-03-15T14:38:51;4.30;;;4.00;;
28547;SDS011;68292;49.600;8.746;2023-03-15T14:41:22;4.67;;;4.27;;
28547;SDS011;68292;49.600;8.746;2023-03-15T14:44:00;3.87;;;3.57;;
28547;SDS011;68292;49.600;8.746;2023-03-15T14:46:29;4.27;;;3.87;;
28547;SDS011;68292;49.600;8.746;2023-03-15T14:48:59;3.80;;;3.50;;
28547;SDS011;68292;49.600;8.746;2023-03-15T14:51:28;5.77;;;3.70;;
28547;SDS011;68292;49.600;8.746;2023-03-15T14:53:58;4.93;;;3.80;;
28547;SDS011;68292;49.600;8.746;2023-03-15T14:56:28;5.47;;;3.63;;
28547;SDS011;68292;49.600;8.746;2023-03-15T14:58:56;3.87;;;3.47;;
28547;SDS011;68292;49.600;8.746;2023-03-15T15:01:29;4.47;;;3.20;;
28547;SDS011;68292;49.600;8.746;2023-03-15T15:03:59;4.20;;;3.30;;
28547;SDS011;68292;49.600;8.746;2023-03-15T15:06:30;3.97;;;3.60;;
28547;SDS011;68292;49.600;8.746;2023-03-15T15:08:59;5.47;;;3.90;;
28547;SDS011;68292;49.600;8.746;2023-03-15T15:11:29;4.00;;;3.70;;
28547;SDS011;68292;49.600;8.746;2023-03-15T15:13:58;4.13;;;3.73;;
28547;SDS011;68292;49.600;8.746;2023-03-15T15:16:26;5.93;;;5.43;;
28547;SDS011;68292;49.600;8.746;2023-03-15T15:18:57;11.30;;;7.53;;
28547;SDS011;68292;49.600;8.746;2023-03-15T15:21:26;8.53;;;7.63;;
28547;SDS011;68292;49.600;8.746;2023-03-15T15:24:00;6.87;;;6.20;;
28547;SDS011;68292;49.600;8.746;2023-03-15T15:26:30;7.67;;;6.33;;
28547;SDS011;68292;49.600;8.746;2023-03-15T15:29:00;6.00;;;5.40;;
28547;SDS011;68292;49.600;8.746;2023-03-15T15:31:29;5.90;;;5.00;;
28547;SDS011;68292;49.600;8.746;2023-03-15T15:34:01;5.63;;;5.03;;
28547;SDS011;68292;49.600;8.746;2023-03-15T15:36:31;5.17;;;4.70;;
28547;SDS011;68292;49.600;8.746;2023-03-15T15:39:02;5.00;;;4.50;;
28547;SDS011;68292;49.600;8.746;2023-03-15T15:41:33;3.83;;;3.53;;
28547;SDS011;68292;49.600;8.746;2023-03-15T15:44:02;5.20;;;4.70;;
28547;SDS011;68292;49.600;8.746;2023-03-15T15:46:31;4.77;;;4.37;;
28547;SDS011;68292;49.600;8.746;2023-03-15T15:49:01;6.20;;;4.63;;
28547;SDS011;68292;49.600;8.746;2023-03-15T15:51:30;4.20;;;3.80;;
28547;SDS011;68292;49.600;8.746;2023-03-15T15:54:03;4.60;;;4.20;;
28547;SDS011;68292;49.600;8.746;2023-03-15T15:56:33;5.07;;;4.67;;